sensor_id;sensor_type;location;lat;lon;timestamp;pressure;altitude;pressure_sealevel;temperature;humidity
43691;BME280;29293;52.190;21.226;2023-04-01T00:02:45;98416.08;;;8.51;100.00
43691;BME280;29293;52.190;21.226;2023-04-01T00:17:52;98405.04;;;8.49;100.00
43691;BME280;29293;52.190;21.226;2023-04-01T00:33:01;98393.98;;;8.48;100.00
43691;BME280;29293;52.190;21.226;2023-04-01T00:48:12;98375.86;;;8.43;100.00
43691;BME280;29293;52.190;21.226;2023-04-01T01:03:20;98372.91;;;8.37;100.00
43691;BME280;29293;52.190;21.226;2023-04-01T01:18:33;98382.46;;;8.33;100.00
43691;BME280;29293;52.190;21.226;2023-04-01T01:33:50;98383.17;;;8.32;100.00
43691;BME280;29293;52.190;21.226;2023-04-01T01:49:01;98384.34;;;8.27;100.00
43691;BME280;29293;52.190;21.226;2023-04-01T02:04:07;98376.58;;;8.19;100.00
43691;BME280;29293;52.190;21.226;2023-04-01T02:19:16;98364.58;;;8.07;100.00
43691;BME280;29293;52.190;21.226;2023-04-01T02:34:28;98345.80;;;7.98;100.00
43691;BME280;29293;52.190;21.226;2023-04-01T02:49:35;98339.11;;;7.96;100.00
43691;BME280;29293;52.190;21.226;2023-04-01T03:04:42;98347.51;;;7.97;100.00
43691;BME280;29293;52.190;21.226;2023-04-01T03:19:49;98347.46;;;7.95;100.00
43691;BME280;29293;52.190;21.226;2023-04-01T03:34:56;98365.29;;;7.90;100.00
43691;BME280;29293;52.190;21.226;2023-04-01T03:50:04;98377.17;;;7.90;100.00
43691;BME280;29293;52.190;21.226;2023-04-01T04:05:11;98393.10;;;7.88;100.00
43691;BME280;29293;52.190;21.226;2023-04-01T04:20:19;98408.72;;;7.84;100.00
43691;BME280;29293;52.190;21.226;2023-04-01T04:35:27;98417.52;;;7.80;100.00
43691;BME280;29293;52.190;21.226;2023-04-01T04:50:34;98423.99;;;7.79;100.00
43691;BME280;29293;52.190;21.226;2023-04-01T05:05:49;98430.95;;;7.84;100.00
43691;BME280;29293;52.190;21.226;2023-04-01T05:20:56;98433.58;;;7.96;100.00
43691;BME280;29293;52.190;21.226;2023-04-01T05:36:14;98440.81;;;8.16;100.00
43691;BME280;29293;52.190;21.226;2023-04-01T05:51:22;98441.77;;;8.34;100.00
43691;BME280;29293;52.190;21.226;2023-04-01T06:06:30;98450.08;;;8.56;100.00
43691;BME280;29293;52.190;21.226;2023-04-01T06:21:46;98458.30;;;8.72;100.00
43691;BME280;29293;52.190;21.226;2023-04-01T06:37:25;98461.73;;;9.02;100.00
43691;BME280;29293;52.190;21.226;2023-04-01T06:52:39;98459.27;;;9.51;100.00
43691;BME280;29293;52.190;21.226;2023-04-01T07:07:52;98458.34;;;9.62;100.00
43691;BME280;29293;52.190;21.226;2023-04-01T07:23:04;98458.08;;;9.56;100.00
43691;BME280;29293;52.190;21.226;2023-04-01T07:38:19;98461.17;;;9.70;100.00
43691;BME280;29293;52.190;21.226;2023-04-01T07:53:33;98464.64;;;9.82;100.00
43691;BME280;29293;52.190;21.226;2023-04-01T08:08:50;98466.06;;;9.52;100.00
43691;BME280;29293;52.190;21.226;2023-04-01T08:24:10;98477.61;;;9.94;100.00
43691;BME280;29293;52.190;21.226;2023-04-01T08:39:21;98486.21;;;10.58;100.00
43691;BME280;29293;52.190;21.226;2023-04-01T08:54:47;98497.20;;;10.64;100.00
43691;BME280;29293;52.190;21.226;2023-04-01T09:10:25;98499.45;;;10.56;100.00
43691;BME280;29293;52.190;21.226;2023-04-01T09:25:47;98499.66;;;11.00;100.00
43691;BME280;29293;52.190;21.226;2023-04-01T09:41:01;98512.48;;;10.51;100.00
43691;BME280;29293;52.190;21.226;2023-04-01T10:27:48;98543.95;;;10.36;100.00
43691;BME280;29293;52.190;21.226;2023-04-01T10:59:08;98550.00;;;9.98;100.00
43691;BME280;29293;52.190;21.226;2023-04-01T11:30:06;98546.66;;;10.57;100.00
43691;BME280;29293;52.190;21.226;2023-04-01T11:45:29;98540.14;;;11.38;100.00
43691;BME280;29293;52.190;21.226;2023-04-01T12:00:58;98534.39;;;11.81;100.00
43691;BME280;29293;52.190;21.226;2023-04-01T12:16:28;98538.74;;;11.80;100.00
43691;BME280;29293;52.190;21.226;2023-04-01T12:31:47;98549.88;;;12.12;100.00
43691;BME280;29293;52.190;21.226;2023-04-01T12:47:12;98544.59;;;12.04;100.00
43691;BME280;29293;52.190;21.226;2023-04-01T13:02:31;98557.11;;;12.00;100.00
43691;BME280;29293;52.190;21.226;2023-04-01T13:17:49;98564.34;;;12.10;100.00
43691;BME280;29293;52.190;21.226;2023-04-01T13:33:04;98577.89;;;12.06;100.00
43691;BME280;29293;52.190;21.226;2023-04-01T13:48:45;98581.92;;;12.11;100.00
43691;BME280;29293;52.190;21.226;2023-04-01T14:20:04;98609.45;;;11.61;100.00
43691;BME280;29293;52.190;21.226;2023-04-01T14:35:37;98620.21;;;11.34;100.00
43691;BME280;29293;52.190;21.226;2023-04-01T14:50:46;98632.83;;;11.26;100.00
43691;BME280;29293;52.190;21.226;2023-04-01T15:06:12;98652.58;;;10.80;100.00
43691;BME280;29293;52.190;21.226;2023-04-01T15:21:57;98668.42;;;10.21;100.00
43691;BME280;29293;52.190;21.226;2023-04-01T15:37:16;98695.59;;;9.46;100.00
43691;BME280;29293;52.190;21.226;2023-04-01T15:52:39;98723.17;;;9.04;100.00
43691;BME280;29293;52.190;21.226;2023-04-01T16:08:03;98746.42;;;8.73;100.00
43691;BME280;29293;52.190;21.226;2023-04-01T16:23:20;98774.60;;;8.43;100.00
43691;BME280;29293;52.190;21.226;2023-04-01T16:38:38;98804.57;;;8.12;100.00
43691;BME280;29293;52.190;21.226;2023-04-01T16:53:47;98829.91;;;7.90;100.00
43691;BME280;29293;52.190;21.226;2023-04-01T17:09:07;98855.72;;;7.84;100.00
43691;BME280;29293;52.190;21.226;2023-04-01T17:24:31;98888.08;;;7.77;100.00
43691;BME280;29293;52.190;21.226;2023-04-01T17:39:48;98899.19;;;7.58;100.00
43691;BME280;29293;52.190;21.226;2023-04-01T17:55:17;98926.75;;;7.52;100.00
43691;BME280;29293;52.190;21.226;2023-04-01T18:10:38;98954.80;;;7.53;100.00
43691;BME280;29293;52.190;21.226;2023-04-01T18:25:49;98974.98;;;7.59;100.00
43691;BME280;29293;52.190;21.226;2023-04-01T18:41:14;98985.40;;;7.55;100.00
43691;BME280;29293;52.190;21.226;2023-04-01T18:56:28;99003.94;;;7.56;100.00
43691;BME280;29293;52.190;21.226;2023-04-01T19:11:44;99025.48;;;7.51;100.00
43691;BME280;29293;52.190;21.226;2023-04-01T19:27:14;99044.34;;;7.41;100.00
43691;BME280;29293;52.190;21.226;2023-04-01T19:42:29;99068.09;;;7.31;100.00
43691;BME280;29293;52.190;21.226;2023-04-01T19:57:46;99090.44;;;7.20;100.00
43691;BME280;29293;52.190;21.226;2023-04-01T20:13:00;99108.67;;;7.15;100.00
43691;BME280;29293;52.190;21.226;2023-04-01T20:28:09;99120.27;;;7.10;100.00
43691;BME280;29293;52.190;21.226;2023-04-01T20:43:46;99136.30;;;7.08;100.00
43691;BME280;29293;52.190;21.226;2023-04-01T20:59:27;99155.56;;;7.01;100.00
43691;BME280;29293;52.190;21.226;2023-04-01T21:14:51;99169.94;;;6.88;100.00
43691;BME280;29293;52.190;21.226;2023-04-01T21:30:16;99194.31;;;6.74;100.00
43691;BME280;29293;52.190;21.226;2023-04-01T21:46:01;99222.44;;;6.59;100.00
43691;BME280;29293;52.190;21.226;2023-04-01T22:16:20;99249.52;;;6.44;100.00
43691;BME280;29293;52.190;21.226;2023-04-01T22:31:36;99266.98;;;6.38;100.00
43691;BME280;29293;52.190;21.226;2023-04-01T22:46:54;99280.77;;;6.27;100.00
43691;BME280;29293;52.190;21.226;2023-04-01T23:02:08;99293.19;;;6.08;100.00
43691;BME280;29293;52.190;21.226;2023-04-01T23:17:30;99305.36;;;5.92;100.00
43691;BME280;29293;52.190;21.226;2023-04-01T23:32:40;99314.73;;;5.85;100.00
43691;BME280;29293;52.190;21.226;2023-04-01T23:47:48;99328.30;;;5.83;100.00
